Terminal Aerodrome Forecast
Issued by NWS

Current Version | Previous Version | Text Only | Print | Product List | Glossary Off
Versions: 1 2 3 4 5 6 7 8 9 10 11 12 13

000
FTUS41 KPBZ 241700
TAFHLG
TAF
KHLG 241722Z 2418/2518 10007KT P6SM SCT030
     FM242300 11003KT P6SM FEW250
     FM251700 16007KT P6SM SCT250=

USA.gov is the U.S. government's official web portal to all federal, state and local government web resources and services.